sensor_id;sensor_type;location;lat;lon;timestamp;temperature;humidity
1978;DHT22;989;53.016;8.346;2022-11-20T00:01:18;0.10;60.60
1978;DHT22;989;53.016;8.346;2022-11-20T00:03:46;0.00;61.80
1978;DHT22;989;53.016;8.346;2022-11-20T00:06:15;0.00;62.00
1978;DHT22;989;53.016;8.346;2022-11-20T00:08:43;0.10;63.50
1978;DHT22;989;53.016;8.346;2022-11-20T00:11:11;0.00;62.80
1978;DHT22;989;53.016;8.346;2022-11-20T00:13:41;0.10;62.60
1978;DHT22;989;53.016;8.346;2022-11-20T00:16:10;0.10;59.70
1978;DHT22;989;53.016;8.346;2022-11-20T00:18:37;0.10;59.30
1978;DHT22;989;53.016;8.346;2022-11-20T00:21:03;0.20;61.60
1978;DHT22;989;53.016;8.346;2022-11-20T00:23:30;0.20;58.40
1978;DHT22;989;53.016;8.346;2022-11-20T00:25:56;0.20;58.40
1978;DHT22;989;53.016;8.346;2022-11-20T00:28:22;0.30;60.00
1978;DHT22;989;53.016;8.346;2022-11-20T00:30:48;0.30;57.70
1978;DHT22;989;53.016;8.346;2022-11-20T00:33:13;0.30;59.20
1978;DHT22;989;53.016;8.346;2022-11-20T00:35:39;0.20;60.30
1978;DHT22;989;53.016;8.346;2022-11-20T00:38:04;0.20;60.80
1978;DHT22;989;53.016;8.346;2022-11-20T00:40:30;0.20;60.90
1978;DHT22;989;53.016;8.346;2022-11-20T00:42:55;0.20;60.50
1978;DHT22;989;53.016;8.346;2022-11-20T00:45:21;0.20;64.90
1978;DHT22;989;53.016;8.346;2022-11-20T00:47:47;0.20;61.50
1978;DHT22;989;53.016;8.346;2022-11-20T00:50:12;0.10;62.70
1978;DHT22;989;53.016;8.346;2022-11-20T00:52:38;0.10;63.70
1978;DHT22;989;53.016;8.346;2022-11-20T00:55:04;0.20;68.10
1978;DHT22;989;53.016;8.346;2022-11-20T00:57:30;0.20;65.40
1978;DHT22;989;53.016;8.346;2022-11-20T00:59:56;0.20;64.40
1978;DHT22;989;53.016;8.346;2022-11-20T01:02:22;0.20;64.80
1978;DHT22;989;53.016;8.346;2022-11-20T01:04:48;0.20;63.60
1978;DHT22;989;53.016;8.346;2022-11-20T01:07:14;0.20;65.90
1978;DHT22;989;53.016;8.346;2022-11-20T01:09:40;0.20;67.30
1978;DHT22;989;53.016;8.346;2022-11-20T01:12:05;0.30;68.80
1978;DHT22;989;53.016;8.346;2022-11-20T01:14:31;0.30;65.60
1978;DHT22;989;53.016;8.346;2022-11-20T01:16:57;0.30;65.30
1978;DHT22;989;53.016;8.346;2022-11-20T01:19:23;0.30;64.30
1978;DHT22;989;53.016;8.346;2022-11-20T01:21:51;0.40;64.60
1978;DHT22;989;53.016;8.346;2022-11-20T01:24:20;0.40;63.10
1978;DHT22;989;53.016;8.346;2022-11-20T01:26:49;0.40;61.40
1978;DHT22;989;53.016;8.346;2022-11-20T01:29:24;0.30;57.60
1978;DHT22;989;53.016;8.346;2022-11-20T01:31:50;0.30;57.10
1978;DHT22;989;53.016;8.346;2022-11-20T01:34:18;0.30;56.10
1978;DHT22;989;53.016;8.346;2022-11-20T01:36:45;0.40;55.00
1978;DHT22;989;53.016;8.346;2022-11-20T01:39:17;0.30;53.50
1978;DHT22;989;53.016;8.346;2022-11-20T01:41:46;0.40;54.80
1978;DHT22;989;53.016;8.346;2022-11-20T01:44:47;0.30;52.10
1978;DHT22;989;53.016;8.346;2022-11-20T01:50:18;0.30;53.60
1978;DHT22;989;53.016;8.346;2022-11-20T01:53:00;0.30;52.30
1978;DHT22;989;53.016;8.346;2022-11-20T01:55:33;0.30;52.90
1978;DHT22;989;53.016;8.346;2022-11-20T01:58:01;0.30;52.20
1978;DHT22;989;53.016;8.346;2022-11-20T02:00:28;0.30;53.80
1978;DHT22;989;53.016;8.346;2022-11-20T02:03:00;0.30;54.80
1978;DHT22;989;53.016;8.346;2022-11-20T02:05:40;0.30;55.00
1978;DHT22;989;53.016;8.346;2022-11-20T02:08:08;0.30;54.60
1978;DHT22;989;53.016;8.346;2022-11-20T02:10:34;0.30;54.60
1978;DHT22;989;53.016;8.346;2022-11-20T02:13:00;0.30;53.30
1978;DHT22;989;53.016;8.346;2022-11-20T02:15:45;0.30;52.30
1978;DHT22;989;53.016;8.346;2022-11-20T02:18:14;0.40;56.20
1978;DHT22;989;53.016;8.346;2022-11-20T02:20:47;0.50;57.10
1978;DHT22;989;53.016;8.346;2022-11-20T02:26:00;0.40;48.60
1978;DHT22;989;53.016;8.346;2022-11-20T02:28:27;0.40;49.30
1978;DHT22;989;53.016;8.346;2022-11-20T02:30:53;0.50;46.90
1978;DHT22;989;53.016;8.346;2022-11-20T02:33:19;0.50;45.90
1978;DHT22;989;53.016;8.346;2022-11-20T02:35:46;0.50;40.10
1978;DHT22;989;53.016;8.346;2022-11-20T02:38:13;0.50;39.60
1978;DHT22;989;53.016;8.346;2022-11-20T02:40:39;0.40;38.00
1978;DHT22;989;53.016;8.346;2022-11-20T02:43:05;0.50;39.20
1978;DHT22;989;53.016;8.346;2022-11-20T02:45:31;0.40;37.40
1978;DHT22;989;53.016;8.346;2022-11-20T02:47:57;0.40;37.00
1978;DHT22;989;53.016;8.346;2022-11-20T02:50:22;0.40;37.30
1978;DHT22;989;53.016;8.346;2022-11-20T02:52:48;0.40;36.50
1978;DHT22;989;53.016;8.346;2022-11-20T02:55:14;0.40;37.30
1978;DHT22;989;53.016;8.346;2022-11-20T02:57:39;0.40;37.90
1978;DHT22;989;53.016;8.346;2022-11-20T03:00:06;0.40;39.40
1978;DHT22;989;53.016;8.346;2022-11-20T03:02:34;0.40;39.90
1978;DHT22;989;53.016;8.346;2022-11-20T03:05:00;0.40;43.90
1978;DHT22;989;53.016;8.346;2022-11-20T03:07:25;0.40;43.40
1978;DHT22;989;53.016;8.346;2022-11-20T03:09:51;0.60;46.80
1978;DHT22;989;53.016;8.346;2022-11-20T03:12:16;0.60;40.10
1978;DHT22;989;53.016;8.346;2022-11-20T03:14:42;0.50;34.70
1978;DHT22;989;53.016;8.346;2022-11-20T03:17:08;0.50;36.90
1978;DHT22;989;53.016;8.346;2022-11-20T03:19:34;0.50;35.90
1978;DHT22;989;53.016;8.346;2022-11-20T03:22:00;0.60;40.10
1978;DHT22;989;53.016;8.346;2022-11-20T03:24:26;0.50;34.50
1978;DHT22;989;53.016;8.346;2022-11-20T03:26:52;0.50;34.50
1978;DHT22;989;53.016;8.346;2022-11-20T03:29:17;0.50;34.50
1978;DHT22;989;53.016;8.346;2022-11-20T03:31:43;0.40;34.00
1978;DHT22;989;53.016;8.346;2022-11-20T03:34:10;0.50;37.20
1978;DHT22;989;53.016;8.346;2022-11-20T03:36:42;0.50;34.50
1978;DHT22;989;53.016;8.346;2022-11-20T03:39:08;0.50;36.30
1978;DHT22;989;53.016;8.346;2022-11-20T03:41:39;0.50;34.90
1978;DHT22;989;53.016;8.346;2022-11-20T03:44:07;0.50;34.90
1978;DHT22;989;53.016;8.346;2022-11-20T03:46:35;0.50;39.70
1978;DHT22;989;53.016;8.346;2022-11-20T03:49:01;0.50;40.50
1978;DHT22;989;53.016;8.346;2022-11-20T03:51:29;0.50;39.90
1978;DHT22;989;53.016;8.346;2022-11-20T03:53:58;0.50;39.50
1978;DHT22;989;53.016;8.346;2022-11-20T03:56:28;0.50;39.70
1978;DHT22;989;53.016;8.346;2022-11-20T03:58:54;0.50;39.80
1978;DHT22;989;53.016;8.346;2022-11-20T04:01:30;0.50;37.90
1978;DHT22;989;53.016;8.346;2022-11-20T04:03:57;0.40;38.30
1978;DHT22;989;53.016;8.346;2022-11-20T04:06:25;0.50;41.30
1978;DHT22;989;53.016;8.346;2022-11-20T04:08:57;0.40;39.50
1978;DHT22;989;53.016;8.346;2022-11-20T04:11:26;0.40;40.10
1978;DHT22;989;53.016;8.346;2022-11-20T04:13:55;0.50;42.50
1978;DHT22;989;53.016;8.346;2022-11-20T04:16:25;0.40;40.10
1978;DHT22;989;53.016;8.346;2022-11-20T04:18:56;0.40;40.40
1978;DHT22;989;53.016;8.346;2022-11-20T04:21:23;0.50;40.10
1978;DHT22;989;53.016;8.346;2022-11-20T04:23:50;0.40;40.60
1978;DHT22;989;53.016;8.346;2022-11-20T04:26:17;0.50;39.80
1978;DHT22;989;53.016;8.346;2022-11-20T04:28:42;0.50;38.50
1978;DHT22;989;53.016;8.346;2022-11-20T04:31:09;0.40;38.30
1978;DHT22;989;53.016;8.346;2022-11-20T04:33:42;0.40;37.90
1978;DHT22;989;53.016;8.346;2022-11-20T04:36:28;0.40;37.00
1978;DHT22;989;53.016;8.346;2022-11-20T04:38:57;0.40;37.50
1978;DHT22;989;53.016;8.346;2022-11-20T04:41:29;0.50;38.40
1978;DHT22;989;53.016;8.346;2022-11-20T04:43:58;0.40;35.30
1978;DHT22;989;53.016;8.346;2022-11-20T04:46:28;0.50;35.50
1978;DHT22;989;53.016;8.346;2022-11-20T04:48:55;0.50;34.90
1978;DHT22;989;53.016;8.346;2022-11-20T04:51:21;0.50;35.80
1978;DHT22;989;53.016;8.346;2022-11-20T04:53:46;0.50;34.40
1978;DHT22;989;53.016;8.346;2022-11-20T04:56:13;0.60;34.10
1978;DHT22;989;53.016;8.346;2022-11-20T04:58:39;0.60;29.90
1978;DHT22;989;53.016;8.346;2022-11-20T05:01:10;0.60;28.90
1978;DHT22;989;53.016;8.346;2022-11-20T05:03:38;0.50;29.90
1978;DHT22;989;53.016;8.346;2022-11-20T05:06:05;0.50;28.80
1978;DHT22;989;53.016;8.346;2022-11-20T05:08:32;0.60;28.80
1978;DHT22;989;53.016;8.346;2022-11-20T05:11:09;0.60;26.80
1978;DHT22;989;53.016;8.346;2022-11-20T05:13:36;0.60;28.70
1978;DHT22;989;53.016;8.346;2022-11-20T05:16:04;0.50;28.90
1978;DHT22;989;53.016;8.346;2022-11-20T05:18:35;0.50;29.70
1978;DHT22;989;53.016;8.346;2022-11-20T05:21:01;0.50;30.40
1978;DHT22;989;53.016;8.346;2022-11-20T05:23:28;0.50;30.00
1978;DHT22;989;53.016;8.346;2022-11-20T05:25:55;0.50;31.60
1978;DHT22;989;53.016;8.346;2022-11-20T05:28:22;0.50;32.40
1978;DHT22;989;53.016;8.346;2022-11-20T05:30:48;0.50;33.80
1978;DHT22;989;53.016;8.346;2022-11-20T05:33:15;0.50;34.60
1978;DHT22;989;53.016;8.346;2022-11-20T05:35:41;0.50;36.00
1978;DHT22;989;53.016;8.346;2022-11-20T05:38:07;0.50;39.30
1978;DHT22;989;53.016;8.346;2022-11-20T05:40:33;0.50;38.30
1978;DHT22;989;53.016;8.346;2022-11-20T05:42:59;0.50;38.30
1978;DHT22;989;53.016;8.346;2022-11-20T05:45:25;0.40;38.30
1978;DHT22;989;53.016;8.346;2022-11-20T05:47:51;0.40;39.10
1978;DHT22;989;53.016;8.346;2022-11-20T05:50:17;0.40;41.40
1978;DHT22;989;53.016;8.346;2022-11-20T05:52:42;0.40;40.40
1978;DHT22;989;53.016;8.346;2022-11-20T05:55:08;0.40;41.00
1978;DHT22;989;53.016;8.346;2022-11-20T05:57:34;0.50;40.10
1978;DHT22;989;53.016;8.346;2022-11-20T06:00:00;0.50;41.90
1978;DHT22;989;53.016;8.346;2022-11-20T06:02:27;0.40;40.60
1978;DHT22;989;53.016;8.346;2022-11-20T06:04:52;0.40;43.30
1978;DHT22;989;53.016;8.346;2022-11-20T06:07:18;0.40;41.50
1978;DHT22;989;53.016;8.346;2022-11-20T06:09:43;0.40;42.10
1978;DHT22;989;53.016;8.346;2022-11-20T06:12:09;0.40;41.30
1978;DHT22;989;53.016;8.346;2022-11-20T06:14:35;0.40;42.10
1978;DHT22;989;53.016;8.346;2022-11-20T06:17:00;0.40;44.50
1978;DHT22;989;53.016;8.346;2022-11-20T06:19:26;0.30;44.10
1978;DHT22;989;53.016;8.346;2022-11-20T06:21:51;0.30;45.10
1978;DHT22;989;53.016;8.346;2022-11-20T06:24:17;0.30;46.20
1978;DHT22;989;53.016;8.346;2022-11-20T06:26:44;0.30;50.20
1978;DHT22;989;53.016;8.346;2022-11-20T06:29:10;0.40;49.00
1978;DHT22;989;53.016;8.346;2022-11-20T06:31:36;0.40;46.80
1978;DHT22;989;53.016;8.346;2022-11-20T06:34:04;0.40;45.60
1978;DHT22;989;53.016;8.346;2022-11-20T06:36:31;0.30;45.90
1978;DHT22;989;53.016;8.346;2022-11-20T06:38:57;0.30;47.50
1978;DHT22;989;53.016;8.346;2022-11-20T06:41:23;0.30;46.10
1978;DHT22;989;53.016;8.346;2022-11-20T06:43:49;0.30;46.80
1978;DHT22;989;53.016;8.346;2022-11-20T06:46:17;0.30;44.70
1978;DHT22;989;53.016;8.346;2022-11-20T06:48:44;0.30;43.60
1978;DHT22;989;53.016;8.346;2022-11-20T06:51:09;0.30;45.10
1978;DHT22;989;53.016;8.346;2022-11-20T06:53:36;0.30;46.30
1978;DHT22;989;53.016;8.346;2022-11-20T06:56:02;0.30;45.90
1978;DHT22;989;53.016;8.346;2022-11-20T06:58:30;0.30;45.20
1978;DHT22;989;53.016;8.346;2022-11-20T07:01:01;0.20;45.90
1978;DHT22;989;53.016;8.346;2022-11-20T07:03:31;0.20;46.10
1978;DHT22;989;53.016;8.346;2022-11-20T07:05:57;0.20;46.80
1978;DHT22;989;53.016;8.346;2022-11-20T07:08:24;0.20;47.30
1978;DHT22;989;53.016;8.346;2022-11-20T07:10:50;0.20;48.40
1978;DHT22;989;53.016;8.346;2022-11-20T07:13:16;0.30;50.60
1978;DHT22;989;53.016;8.346;2022-11-20T07:15:42;0.30;51.40
1978;DHT22;989;53.016;8.346;2022-11-20T07:18:07;0.30;50.00
1978;DHT22;989;53.016;8.346;2022-11-20T07:20:33;0.30;49.70
1978;DHT22;989;53.016;8.346;2022-11-20T07:22:59;0.40;49.40
1978;DHT22;989;53.016;8.346;2022-11-20T07:25:27;0.50;51.90
1978;DHT22;989;53.016;8.346;2022-11-20T07:27:58;0.50;47.80
1978;DHT22;989;53.016;8.346;2022-11-20T07:30:24;0.50;46.40
1978;DHT22;989;53.016;8.346;2022-11-20T07:32:53;0.50;46.40
1978;DHT22;989;53.016;8.346;2022-11-20T07:35:20;0.60;46.70
1978;DHT22;989;53.016;8.346;2022-11-20T07:37:47;0.60;46.60
1978;DHT22;989;53.016;8.346;2022-11-20T07:40:14;0.70;44.60
1978;DHT22;989;53.016;8.346;2022-11-20T07:42:51;0.70;45.40
1978;DHT22;989;53.016;8.346;2022-11-20T07:45:18;0.80;45.10
1978;DHT22;989;53.016;8.346;2022-11-20T07:47:45;0.80;42.90
1978;DHT22;989;53.016;8.346;2022-11-20T07:50:11;0.80;44.70
1978;DHT22;989;53.016;8.346;2022-11-20T07:52:39;0.80;43.20
1978;DHT22;989;53.016;8.346;2022-11-20T07:55:06;0.90;42.10
1978;DHT22;989;53.016;8.346;2022-11-20T07:57:32;0.90;40.90
1978;DHT22;989;53.016;8.346;2022-11-20T07:59:58;1.00;41.20
1978;DHT22;989;53.016;8.346;2022-11-20T08:02:24;1.10;41.10
1978;DHT22;989;53.016;8.346;2022-11-20T08:04:50;1.10;39.30
1978;DHT22;989;53.016;8.346;2022-11-20T08:07:15;1.10;38.30
1978;DHT22;989;53.016;8.346;2022-11-20T08:09:41;1.20;35.50
1978;DHT22;989;53.016;8.346;2022-11-20T08:12:18;1.20;31.40
1978;DHT22;989;53.016;8.346;2022-11-20T08:15:04;1.30;29.60
1978;DHT22;989;53.016;8.346;2022-11-20T08:17:31;1.30;24.80
1978;DHT22;989;53.016;8.346;2022-11-20T08:19:57;1.30;22.10
1978;DHT22;989;53.016;8.346;2022-11-20T08:22:23;1.40;23.30
1978;DHT22;989;53.016;8.346;2022-11-20T08:24:48;1.30;13.90
1978;DHT22;989;53.016;8.346;2022-11-20T08:27:14;1.40;11.70
1978;DHT22;989;53.016;8.346;2022-11-20T08:29:40;1.50;8.80
1978;DHT22;989;53.016;8.346;2022-11-20T08:32:05;1.40;5.80
1978;DHT22;989;53.016;8.346;2022-11-20T08:34:31;1.50;5.30
1978;DHT22;989;53.016;8.346;2022-11-20T08:36:56;1.40;3.60
1978;DHT22;989;53.016;8.346;2022-11-20T08:39:22;1.40;1.00
1978;DHT22;989;53.016;8.346;2022-11-20T08:41:48;1.30;1.00
1978;DHT22;989;53.016;8.346;2022-11-20T08:44:13;1.40;1.00
1978;DHT22;989;53.016;8.346;2022-11-20T08:46:41;1.40;1.00
1978;DHT22;989;53.016;8.346;2022-11-20T08:49:10;1.50;1.00
1978;DHT22;989;53.016;8.346;2022-11-20T08:51:38;1.50;1.00
1978;DHT22;989;53.016;8.346;2022-11-20T08:54:05;1.60;1.00
1978;DHT22;989;53.016;8.346;2022-11-20T08:56:31;1.60;1.00
1978;DHT22;989;53.016;8.346;2022-11-20T08:58:57;1.60;1.00
1978;DHT22;989;53.016;8.346;2022-11-20T09:01:27;1.70;1.00
1978;DHT22;989;53.016;8.346;2022-11-20T09:03:55;1.70;1.00
1978;DHT22;989;53.016;8.346;2022-11-20T09:06:22;1.80;1.00
1978;DHT22;989;53.016;8.346;2022-11-20T09:08:52;1.80;1.00
1978;DHT22;989;53.016;8.346;2022-11-20T09:11:20;1.80;1.00
1978;DHT22;989;53.016;8.346;2022-11-20T09:13:46;1.90;1.00
1978;DHT22;989;53.016;8.346;2022-11-20T09:16:12;2.00;1.00
1978;DHT22;989;53.016;8.346;2022-11-20T09:18:38;1.90;1.00
1978;DHT22;989;53.016;8.346;2022-11-20T09:21:10;1.80;1.00
1978;DHT22;989;53.016;8.346;2022-11-20T09:23:37;1.70;1.00
1978;DHT22;989;53.016;8.346;2022-11-20T09:26:05;1.70;1.00
1978;DHT22;989;53.016;8.346;2022-11-20T09:28:40;1.70;1.00
1978;DHT22;989;53.016;8.346;2022-11-20T09:31:15;1.80;1.00
1978;DHT22;989;53.016;8.346;2022-11-20T09:33:45;1.90;1.00
1978;DHT22;989;53.016;8.346;2022-11-20T09:36:10;1.80;1.00
1978;DHT22;989;53.016;8.346;2022-11-20T09:38:36;2.00;1.00
1978;DHT22;989;53.016;8.346;2022-11-20T09:41:06;1.90;1.00
1978;DHT22;989;53.016;8.346;2022-11-20T09:44:17;2.00;1.00
1978;DHT22;989;53.016;8.346;2022-11-20T09:47:10;2.10;1.00
1978;DHT22;989;53.016;8.346;2022-11-20T09:53:13;2.00;1.00
1978;DHT22;989;53.016;8.346;2022-11-20T09:55:45;2.20;1.00
1978;DHT22;989;53.016;8.346;2022-11-20T09:58:29;2.10;1.00
1978;DHT22;989;53.016;8.346;2022-11-20T10:01:10;2.20;1.00
1978;DHT22;989;53.016;8.346;2022-11-20T10:04:04;2.10;1.00
1978;DHT22;989;53.016;8.346;2022-11-20T10:07:11;2.10;1.00
1978;DHT22;989;53.016;8.346;2022-11-20T10:09:40;2.10;1.00
1978;DHT22;989;53.016;8.346;2022-11-20T10:12:16;2.20;1.00
1978;DHT22;989;53.016;8.346;2022-11-20T10:29:32;2.10;1.00
1978;DHT22;989;53.016;8.346;2022-11-20T10:32:07;2.10;1.00
1978;DHT22;989;53.016;8.346;2022-11-20T10:37:50;2.40;1.00
1978;DHT22;989;53.016;8.346;2022-11-20T10:40:42;2.50;1.00
1978;DHT22;989;53.016;8.346;2022-11-20T10:43:27;2.70;1.00
1978;DHT22;989;53.016;8.346;2022-11-20T10:46:14;2.70;1.00
1978;DHT22;989;53.016;8.346;2022-11-20T10:48:43;2.70;1.00
1978;DHT22;989;53.016;8.346;2022-11-20T10:51:31;2.90;1.00
1978;DHT22;989;53.016;8.346;2022-11-20T10:54:09;2.90;1.00
1978;DHT22;989;53.016;8.346;2022-11-20T10:56:48;2.90;1.00
1978;DHT22;989;53.016;8.346;2022-11-20T11:02:40;2.80;1.00
1978;DHT22;989;53.016;8.346;2022-11-20T11:05:39;2.60;1.00
1978;DHT22;989;53.016;8.346;2022-11-20T11:08:15;2.60;1.00
1978;DHT22;989;53.016;8.346;2022-11-20T11:10:57;2.70;1.00
1978;DHT22;989;53.016;8.346;2022-11-20T11:13:26;2.50;1.00
1978;DHT22;989;53.016;8.346;2022-11-20T11:15:54;2.70;1.00
1978;DHT22;989;53.016;8.346;2022-11-20T11:18:28;2.80;1.00
1978;DHT22;989;53.016;8.346;2022-11-20T11:20:57;2.70;1.00
1978;DHT22;989;53.016;8.346;2022-11-20T11:26:17;2.60;1.00
1978;DHT22;989;53.016;8.346;2022-11-20T11:28:54;2.50;1.00
1978;DHT22;989;53.016;8.346;2022-11-20T11:31:29;2.50;1.00
1978;DHT22;989;53.016;8.346;2022-11-20T11:34:06;2.50;1.00
1978;DHT22;989;53.016;8.346;2022-11-20T11:36:38;2.50;1.00
1978;DHT22;989;53.016;8.346;2022-11-20T11:39:11;2.60;1.00
1978;DHT22;989;53.016;8.346;2022-11-20T11:41:40;2.60;1.00
1978;DHT22;989;53.016;8.346;2022-11-20T11:44:21;2.60;1.00
1978;DHT22;989;53.016;8.346;2022-11-20T11:47:19;2.60;1.00
1978;DHT22;989;53.016;8.346;2022-11-20T11:49:47;2.40;1.00
1978;DHT22;989;53.016;8.346;2022-11-20T11:52:17;2.40;1.00
1978;DHT22;989;53.016;8.346;2022-11-20T12:00:10;2.70;1.00
1978;DHT22;989;53.016;8.346;2022-11-20T12:05:28;2.70;1.00
1978;DHT22;989;53.016;8.346;2022-11-20T12:08:03;2.80;1.00
1978;DHT22;989;53.016;8.346;2022-11-20T12:10:37;2.90;1.00
1978;DHT22;989;53.016;8.346;2022-11-20T12:13:27;3.00;1.00
1978;DHT22;989;53.016;8.346;2022-11-20T12:16:04;3.00;1.00
1978;DHT22;989;53.016;8.346;2022-11-20T12:18:30;2.90;1.00
1978;DHT22;989;53.016;8.346;2022-11-20T12:27:36;3.20;1.00
1978;DHT22;989;53.016;8.346;2022-11-20T12:30:10;3.60;1.00
1978;DHT22;989;53.016;8.346;2022-11-20T12:32:52;3.90;1.00
1978;DHT22;989;53.016;8.346;2022-11-20T12:38:57;3.60;1.00
1978;DHT22;989;53.016;8.346;2022-11-20T12:42:00;4.30;1.00
1978;DHT22;989;53.016;8.346;2022-11-20T12:54:21;4.20;1.00
1978;DHT22;989;53.016;8.346;2022-11-20T12:59:53;4.00;1.00
1978;DHT22;989;53.016;8.346;2022-11-20T13:06:10;3.50;1.00
1978;DHT22;989;53.016;8.346;2022-11-20T13:08:43;3.40;1.00
1978;DHT22;989;53.016;8.346;2022-11-20T13:11:33;3.00;1.00
1978;DHT22;989;53.016;8.346;2022-11-20T13:14:19;2.90;1.00
1978;DHT22;989;53.016;8.346;2022-11-20T13:17:14;2.80;1.00
1978;DHT22;989;53.016;8.346;2022-11-20T13:19:57;2.70;1.00
1978;DHT22;989;53.016;8.346;2022-11-20T13:22:42;2.80;1.00
1978;DHT22;989;53.016;8.346;2022-11-20T13:28:04;2.60;1.00
1978;DHT22;989;53.016;8.346;2022-11-20T13:30:48;2.70;1.00
1978;DHT22;989;53.016;8.346;2022-11-20T13:36:01;2.80;1.00
1978;DHT22;989;53.016;8.346;2022-11-20T13:38:47;2.80;1.00
1978;DHT22;989;53.016;8.346;2022-11-20T13:41:28;2.80;1.00
1978;DHT22;989;53.016;8.346;2022-11-20T13:44:30;2.90;1.00
1978;DHT22;989;53.016;8.346;2022-11-20T13:47:00;2.90;1.00
1978;DHT22;989;53.016;8.346;2022-11-20T13:49:33;3.10;1.00
1978;DHT22;989;53.016;8.346;2022-11-20T13:54:54;3.10;1.00
1978;DHT22;989;53.016;8.346;2022-11-20T13:58:04;3.00;1.00
1978;DHT22;989;53.016;8.346;2022-11-20T14:00:50;2.90;1.00
1978;DHT22;989;53.016;8.346;2022-11-20T14:03:25;2.70;1.00
1978;DHT22;989;53.016;8.346;2022-11-20T14:06:02;2.50;1.00
1978;DHT22;989;53.016;8.346;2022-11-20T14:08:38;2.20;1.00
1978;DHT22;989;53.016;8.346;2022-11-20T14:11:18;2.00;1.00
1978;DHT22;989;53.016;8.346;2022-11-20T14:16:42;1.60;1.00
1978;DHT22;989;53.016;8.346;2022-11-20T14:21:49;1.50;1.00
1978;DHT22;989;53.016;8.346;2022-11-20T14:24:22;1.40;1.00
1978;DHT22;989;53.016;8.346;2022-11-20T14:26:50;1.30;1.00
1978;DHT22;989;53.016;8.346;2022-11-20T14:29:19;1.30;1.00
1978;DHT22;989;53.016;8.346;2022-11-20T14:31:47;1.20;1.00
1978;DHT22;989;53.016;8.346;2022-11-20T14:34:23;1.00;1.00
1978;DHT22;989;53.016;8.346;2022-11-20T14:36:57;0.80;1.00
1978;DHT22;989;53.016;8.346;2022-11-20T14:39:35;0.80;1.00
1978;DHT22;989;53.016;8.346;2022-11-20T14:42:13;0.70;1.00
1978;DHT22;989;53.016;8.346;2022-11-20T14:44:48;0.70;1.00
1978;DHT22;989;53.016;8.346;2022-11-20T14:47:18;0.60;1.00
1978;DHT22;989;53.016;8.346;2022-11-20T14:49:50;0.50;1.00
1978;DHT22;989;53.016;8.346;2022-11-20T14:52:19;0.40;1.00
1978;DHT22;989;53.016;8.346;2022-11-20T14:54:57;0.40;1.00
1978;DHT22;989;53.016;8.346;2022-11-20T14:57:27;0.40;1.00
1978;DHT22;989;53.016;8.346;2022-11-20T15:02:42;0.20;1.00
1978;DHT22;989;53.016;8.346;2022-11-20T15:05:09;0.20;1.00
1978;DHT22;989;53.016;8.346;2022-11-20T15:07:38;0.20;1.00
1978;DHT22;989;53.016;8.346;2022-11-20T15:10:13;0.10;1.00
1978;DHT22;989;53.016;8.346;2022-11-20T15:13:12;0.20;1.00
1978;DHT22;989;53.016;8.346;2022-11-20T15:15:54;0.20;1.00
1978;DHT22;989;53.016;8.346;2022-11-20T15:18:23;0.20;1.00
1978;DHT22;989;53.016;8.346;2022-11-20T15:20:51;0.10;1.00
1978;DHT22;989;53.016;8.346;2022-11-20T15:23:20;0.10;1.00
1978;DHT22;989;53.016;8.346;2022-11-20T15:25:47;0.00;1.00
1978;DHT22;989;53.016;8.346;2022-11-20T15:30:50;-0.20;1.00
1978;DHT22;989;53.016;8.346;2022-11-20T15:33:16;-0.40;1.00
1978;DHT22;989;53.016;8.346;2022-11-20T15:35:43;-0.50;1.00
1978;DHT22;989;53.016;8.346;2022-11-20T15:38:08;-0.60;1.00
1978;DHT22;989;53.016;8.346;2022-11-20T15:40:34;-0.70;1.00
1978;DHT22;989;53.016;8.346;2022-11-20T15:43:00;-0.80;1.00
1978;DHT22;989;53.016;8.346;2022-11-20T15:45:47;-0.80;1.00
1978;DHT22;989;53.016;8.346;2022-11-20T15:48:24;-0.80;1.00
1978;DHT22;989;53.016;8.346;2022-11-20T15:53:25;-0.80;1.00
1978;DHT22;989;53.016;8.346;2022-11-20T15:55:51;-0.80;1.00
1978;DHT22;989;53.016;8.346;2022-11-20T15:58:17;-0.60;1.00
1978;DHT22;989;53.016;8.346;2022-11-20T16:00:42;-0.60;1.00
1978;DHT22;989;53.016;8.346;2022-11-20T16:03:11;-0.60;1.00
1978;DHT22;989;53.016;8.346;2022-11-20T16:05:37;-0.70;1.00
1978;DHT22;989;53.016;8.346;2022-11-20T16:08:03;-0.80;1.00
1978;DHT22;989;53.016;8.346;2022-11-20T16:10:29;-1.00;1.00
1978;DHT22;989;53.016;8.346;2022-11-20T16:12:55;-1.00;1.00
1978;DHT22;989;53.016;8.346;2022-11-20T16:15:52;-1.00;1.00
1978;DHT22;989;53.016;8.346;2022-11-20T16:18:22;-1.00;1.00
1978;DHT22;989;53.016;8.346;2022-11-20T16:20:51;-1.00;1.00
1978;DHT22;989;53.016;8.346;2022-11-20T16:23:19;-1.10;1.00
1978;DHT22;989;53.016;8.346;2022-11-20T16:25:46;-1.30;1.00
1978;DHT22;989;53.016;8.346;2022-11-20T16:28:12;-1.30;1.00
1978;DHT22;989;53.016;8.346;2022-11-20T16:30:39;-1.30;1.00
1978;DHT22;989;53.016;8.346;2022-11-20T16:33:10;-1.20;1.00
1978;DHT22;989;53.016;8.346;2022-11-20T16:35:37;-1.10;1.00
1978;DHT22;989;53.016;8.346;2022-11-20T16:38:03;-1.10;1.00
1978;DHT22;989;53.016;8.346;2022-11-20T16:40:29;-1.10;1.00
1978;DHT22;989;53.016;8.346;2022-11-20T16:42:55;-1.00;1.00
1978;DHT22;989;53.016;8.346;2022-11-20T16:45:20;-1.00;1.00
1978;DHT22;989;53.016;8.346;2022-11-20T16:47:46;-1.00;1.00
1978;DHT22;989;53.016;8.346;2022-11-20T16:50:12;-1.00;1.00
1978;DHT22;989;53.016;8.346;2022-11-20T16:52:38;-1.10;1.00
1978;DHT22;989;53.016;8.346;2022-11-20T16:55:04;-1.10;1.00
1978;DHT22;989;53.016;8.346;2022-11-20T16:57:30;-1.00;1.00
1978;DHT22;989;53.016;8.346;2022-11-20T17:00:00;-1.00;1.00
1978;DHT22;989;53.016;8.346;2022-11-20T17:02:25;-1.00;1.00
1978;DHT22;989;53.016;8.346;2022-11-20T17:04:52;-1.00;1.00
1978;DHT22;989;53.016;8.346;2022-11-20T17:07:17;-1.00;1.00
1978;DHT22;989;53.016;8.346;2022-11-20T17:09:43;-1.00;1.00
1978;DHT22;989;53.016;8.346;2022-11-20T17:12:09;-1.00;1.00
1978;DHT22;989;53.016;8.346;2022-11-20T17:14:35;-1.00;1.00
1978;DHT22;989;53.016;8.346;2022-11-20T17:17:01;-1.00;1.00
1978;DHT22;989;53.016;8.346;2022-11-20T17:19:27;-0.90;1.00
1978;DHT22;989;53.016;8.346;2022-11-20T17:21:52;-0.90;1.00
1978;DHT22;989;53.016;8.346;2022-11-20T17:24:18;-0.80;1.00
1978;DHT22;989;53.016;8.346;2022-11-20T17:26:44;-0.80;1.00
1978;DHT22;989;53.016;8.346;2022-11-20T17:29:12;-0.90;1.00
1978;DHT22;989;53.016;8.346;2022-11-20T17:31:40;-1.00;1.00
1978;DHT22;989;53.016;8.346;2022-11-20T17:34:09;-1.10;1.00
1978;DHT22;989;53.016;8.346;2022-11-20T17:36:36;-1.10;1.00
1978;DHT22;989;53.016;8.346;2022-11-20T17:39:04;-1.10;1.00
1978;DHT22;989;53.016;8.346;2022-11-20T17:41:29;-1.10;1.00
1978;DHT22;989;53.016;8.346;2022-11-20T17:43:57;-1.10;1.00
1978;DHT22;989;53.016;8.346;2022-11-20T17:46:26;-1.00;1.00
1978;DHT22;989;53.016;8.346;2022-11-20T17:48:54;-1.10;1.00
1978;DHT22;989;53.016;8.346;2022-11-20T17:51:23;-1.30;1.00
1978;DHT22;989;53.016;8.346;2022-11-20T17:53:52;-1.30;1.60
1978;DHT22;989;53.016;8.346;2022-11-20T17:56:20;-1.30;2.50
1978;DHT22;989;53.016;8.346;2022-11-20T17:59:06;-1.30;6.60
1978;DHT22;989;53.016;8.346;2022-11-20T18:01:34;-1.10;6.90
1978;DHT22;989;53.016;8.346;2022-11-20T18:04:00;-1.10;8.60
1978;DHT22;989;53.016;8.346;2022-11-20T18:06:27;-1.10;7.50
1978;DHT22;989;53.016;8.346;2022-11-20T18:08:54;-1.10;7.30
1978;DHT22;989;53.016;8.346;2022-11-20T18:11:25;-1.00;8.50
1978;DHT22;989;53.016;8.346;2022-11-20T18:13:54;-1.00;6.20
1978;DHT22;989;53.016;8.346;2022-11-20T18:16:45;-0.90;8.50
1978;DHT22;989;53.016;8.346;2022-11-20T18:19:18;-0.90;8.50
1978;DHT22;989;53.016;8.346;2022-11-20T18:21:48;-0.80;11.90
1978;DHT22;989;53.016;8.346;2022-11-20T18:24:14;-0.70;11.00
1978;DHT22;989;53.016;8.346;2022-11-20T18:26:40;-0.60;11.60
1978;DHT22;989;53.016;8.346;2022-11-20T18:29:05;-0.60;9.00